sensor_id;sensor_type;location;lat;lon;timestamp;P1;durP1;ratioP1;P2;durP2;ratioP2
25990;SDS011;13779;-33.886;151.198;2024-03-23T00:53:18;17.88;;;2.67;;
25990;SDS011;13779;-33.886;151.198;2024-03-23T00:55:47;11.50;;;2.40;;
25990;SDS011;13779;-33.886;151.198;2024-03-23T00:58:15;9.57;;;2.45;;
25990;SDS011;13779;-33.886;151.198;2024-03-23T01:00:44;12.90;;;2.60;;
25990;SDS011;13779;-33.886;151.198;2024-03-23T01:03:13;9.15;;;2.55;;
25990;SDS011;13779;-33.886;151.198;2024-03-23T01:05:41;6.35;;;1.77;;
25990;SDS011;13779;-33.886;151.198;2024-03-23T01:08:10;7.95;;;1.95;;
25990;SDS011;13779;-33.886;151.198;2024-03-23T01:10:38;11.43;;;1.98;;
25990;SDS011;13779;-33.886;151.198;2024-03-23T01:13:07;10.70;;;2.92;;
25990;SDS011;13779;-33.886;151.198;2024-03-23T01:15:36;9.40;;;2.22;;
25990;SDS011;13779;-33.886;151.198;2024-03-23T01:18:05;9.25;;;2.15;;
25990;SDS011;13779;-33.886;151.198;2024-03-23T01:20:33;8.80;;;2.58;;
25990;SDS011;13779;-33.886;151.198;2024-03-23T01:23:01;13.90;;;3.63;;
25990;SDS011;13779;-33.886;151.198;2024-03-23T01:25:29;13.95;;;2.97;;
25990;SDS011;13779;-33.886;151.198;2024-03-23T01:27:57;12.07;;;3.33;;
25990;SDS011;13779;-33.886;151.198;2024-03-23T01:30:26;6.38;;;1.60;;
25990;SDS011;13779;-33.886;151.198;2024-03-23T01:32:54;13.27;;;3.00;;
25990;SDS011;13779;-33.886;151.198;2024-03-23T01:35:22;14.05;;;2.95;;
25990;SDS011;13779;-33.886;151.198;2024-03-23T01:37:50;11.30;;;3.00;;
25990;SDS011;13779;-33.886;151.198;2024-03-23T01:40:19;5.82;;;1.92;;
25990;SDS011;13779;-33.886;151.198;2024-03-23T01:42:57;5.63;;;1.67;;
25990;SDS011;13779;-33.886;151.198;2024-03-23T01:45:29;11.90;;;2.30;;
25990;SDS011;13779;-33.886;151.198;2024-03-23T01:47:58;8.98;;;2.70;;
25990;SDS011;13779;-33.886;151.198;2024-03-23T01:50:27;11.18;;;2.35;;
25990;SDS011;13779;-33.886;151.198;2024-03-23T01:53:02;11.25;;;2.42;;
25990;SDS011;13779;-33.886;151.198;2024-03-23T01:55:32;11.52;;;2.72;;
25990;SDS011;13779;-33.886;151.198;2024-03-23T01:58:01;8.13;;;2.60;;
25990;SDS011;13779;-33.886;151.198;2024-03-23T02:00:29;12.65;;;2.72;;
25990;SDS011;13779;-33.886;151.198;2024-03-23T02:02:57;8.43;;;2.45;;
25990;SDS011;13779;-33.886;151.198;2024-03-23T02:05:25;13.98;;;2.33;;
25990;SDS011;13779;-33.886;151.198;2024-03-23T02:07:53;15.25;;;2.22;;
25990;SDS011;13779;-33.886;151.198;2024-03-23T02:10:22;11.20;;;2.30;;
25990;SDS011;13779;-33.886;151.198;2024-03-23T02:12:50;8.52;;;2.38;;
25990;SDS011;13779;-33.886;151.198;2024-03-23T02:15:18;11.15;;;2.70;;
25990;SDS011;13779;-33.886;151.198;2024-03-23T02:17:46;9.52;;;2.10;;
25990;SDS011;13779;-33.886;151.198;2024-03-23T02:20:15;10.65;;;2.10;;
25990;SDS011;13779;-33.886;151.198;2024-03-23T02:22:43;11.55;;;2.70;;
25990;SDS011;13779;-33.886;151.198;2024-03-23T02:25:11;6.18;;;1.92;;
25990;SDS011;13779;-33.886;151.198;2024-03-23T02:27:39;13.10;;;2.80;;
25990;SDS011;13779;-33.886;151.198;2024-03-23T02:30:07;9.35;;;2.42;;
25990;SDS011;13779;-33.886;151.198;2024-03-23T02:32:36;10.25;;;2.38;;
25990;SDS011;13779;-33.886;151.198;2024-03-23T02:35:04;9.13;;;2.60;;
25990;SDS011;13779;-33.886;151.198;2024-03-23T02:37:33;8.48;;;2.03;;
25990;SDS011;13779;-33.886;151.198;2024-03-23T02:40:01;13.38;;;3.22;;
25990;SDS011;13779;-33.886;151.198;2024-03-23T02:42:30;13.63;;;2.85;;
25990;SDS011;13779;-33.886;151.198;2024-03-23T02:44:58;11.52;;;2.83;;
25990;SDS011;13779;-33.886;151.198;2024-03-23T02:47:26;8.55;;;4.00;;
25990;SDS011;13779;-33.886;151.198;2024-03-23T02:50:01;17.52;;;6.10;;
25990;SDS011;13779;-33.886;151.198;2024-03-23T02:52:29;12.05;;;3.42;;
25990;SDS011;13779;-33.886;151.198;2024-03-23T02:54:57;12.82;;;3.60;;
25990;SDS011;13779;-33.886;151.198;2024-03-23T02:57:25;14.00;;;3.20;;
25990;SDS011;13779;-33.886;151.198;2024-03-23T02:59:54;10.68;;;2.60;;
25990;SDS011;13779;-33.886;151.198;2024-03-23T03:02:22;12.23;;;3.47;;
25990;SDS011;13779;-33.886;151.198;2024-03-23T03:04:50;10.70;;;3.15;;
25990;SDS011;13779;-33.886;151.198;2024-03-23T03:07:18;13.88;;;4.68;;
25990;SDS011;13779;-33.886;151.198;2024-03-23T03:09:47;11.23;;;3.72;;
25990;SDS011;13779;-33.886;151.198;2024-03-23T03:12:15;10.77;;;2.22;;
25990;SDS011;13779;-33.886;151.198;2024-03-23T03:14:43;8.45;;;1.90;;
25990;SDS011;13779;-33.886;151.198;2024-03-23T03:17:11;10.68;;;2.25;;
25990;SDS011;13779;-33.886;151.198;2024-03-23T03:19:40;6.55;;;2.22;;
25990;SDS011;13779;-33.886;151.198;2024-03-23T03:22:08;12.77;;;3.90;;
25990;SDS011;13779;-33.886;151.198;2024-03-23T03:24:36;12.05;;;2.33;;
25990;SDS011;13779;-33.886;151.198;2024-03-23T03:27:04;14.02;;;3.17;;
25990;SDS011;13779;-33.886;151.198;2024-03-23T03:29:33;15.82;;;4.38;;
25990;SDS011;13779;-33.886;151.198;2024-03-23T03:32:02;10.88;;;3.05;;
25990;SDS011;13779;-33.886;151.198;2024-03-23T03:34:30;7.63;;;2.60;;
25990;SDS011;13779;-33.886;151.198;2024-03-23T03:36:59;21.55;;;7.38;;
25990;SDS011;13779;-33.886;151.198;2024-03-23T03:39:27;12.35;;;4.05;;
25990;SDS011;13779;-33.886;151.198;2024-03-23T03:41:55;8.38;;;2.35;;
25990;SDS011;13779;-33.886;151.198;2024-03-23T03:44:23;11.00;;;3.08;;
25990;SDS011;13779;-33.886;151.198;2024-03-23T03:46:51;8.38;;;3.15;;
25990;SDS011;13779;-33.886;151.198;2024-03-23T03:49:20;8.95;;;1.85;;
25990;SDS011;13779;-33.886;151.198;2024-03-23T03:51:48;9.25;;;2.65;;
25990;SDS011;13779;-33.886;151.198;2024-03-23T03:54:16;12.30;;;2.38;;
25990;SDS011;13779;-33.886;151.198;2024-03-23T03:56:44;10.35;;;2.92;;
25990;SDS011;13779;-33.886;151.198;2024-03-23T03:59:12;10.18;;;2.60;;
25990;SDS011;13779;-33.886;151.198;2024-03-23T04:01:41;9.27;;;2.92;;
25990;SDS011;13779;-33.886;151.198;2024-03-23T04:04:09;11.70;;;3.28;;
25990;SDS011;13779;-33.886;151.198;2024-03-23T04:06:38;13.85;;;2.80;;
25990;SDS011;13779;-33.886;151.198;2024-03-23T04:09:06;4.93;;;1.67;;
25990;SDS011;13779;-33.886;151.198;2024-03-23T04:11:34;10.20;;;1.90;;
25990;SDS011;13779;-33.886;151.198;2024-03-23T04:14:03;11.73;;;2.20;;
25990;SDS011;13779;-33.886;151.198;2024-03-23T04:16:34;6.22;;;1.73;;
25990;SDS011;13779;-33.886;151.198;2024-03-23T04:19:03;6.85;;;2.00;;
25990;SDS011;13779;-33.886;151.198;2024-03-23T04:21:31;15.73;;;4.55;;
25990;SDS011;13779;-33.886;151.198;2024-03-23T04:23:59;13.32;;;3.63;;
25990;SDS011;13779;-33.886;151.198;2024-03-23T04:26:27;11.40;;;4.18;;
25990;SDS011;13779;-33.886;151.198;2024-03-23T04:28:56;6.65;;;1.98;;
25990;SDS011;13779;-33.886;151.198;2024-03-23T04:31:24;8.13;;;2.40;;
25990;SDS011;13779;-33.886;151.198;2024-03-23T04:33:52;9.57;;;2.42;;
25990;SDS011;13779;-33.886;151.198;2024-03-23T04:36:20;10.75;;;3.10;;
25990;SDS011;13779;-33.886;151.198;2024-03-23T04:38:48;11.48;;;3.10;;
25990;SDS011;13779;-33.886;151.198;2024-03-23T04:41:18;10.05;;;2.60;;
25990;SDS011;13779;-33.886;151.198;2024-03-23T04:43:47;8.35;;;2.47;;
25990;SDS011;13779;-33.886;151.198;2024-03-23T04:46:15;7.47;;;2.90;;
25990;SDS011;13779;-33.886;151.198;2024-03-23T04:48:44;14.63;;;3.55;;
25990;SDS011;13779;-33.886;151.198;2024-03-23T04:51:20;12.20;;;4.68;;
25990;SDS011;13779;-33.886;151.198;2024-03-23T04:53:49;10.73;;;3.10;;
25990;SDS011;13779;-33.886;151.198;2024-03-23T04:56:17;10.70;;;3.10;;
25990;SDS011;13779;-33.886;151.198;2024-03-23T04:58:45;17.33;;;4.07;;
25990;SDS011;13779;-33.886;151.198;2024-03-23T05:01:14;17.17;;;4.93;;
25990;SDS011;13779;-33.886;151.198;2024-03-23T05:03:42;9.15;;;2.92;;
25990;SDS011;13779;-33.886;151.198;2024-03-23T05:06:10;13.93;;;2.50;;
25990;SDS011;13779;-33.886;151.198;2024-03-23T05:08:39;100.55;;;52.55;;
25990;SDS011;13779;-33.886;151.198;2024-03-23T05:11:07;207.88;;;108.55;;
25990;SDS011;13779;-33.886;151.198;2024-03-23T05:13:35;134.70;;;71.90;;
25990;SDS011;13779;-33.886;151.198;2024-03-23T05:16:05;55.00;;;29.02;;
25990;SDS011;13779;-33.886;151.198;2024-03-23T05:18:35;28.10;;;13.13;;
25990;SDS011;13779;-33.886;151.198;2024-03-23T05:21:03;21.38;;;9.48;;
25990;SDS011;13779;-33.886;151.198;2024-03-23T05:23:32;13.30;;;5.25;;
25990;SDS011;13779;-33.886;151.198;2024-03-23T05:26:00;14.25;;;4.28;;
25990;SDS011;13779;-33.886;151.198;2024-03-23T05:28:29;13.32;;;3.90;;
25990;SDS011;13779;-33.886;151.198;2024-03-23T05:30:58;22.08;;;8.77;;
25990;SDS011;13779;-33.886;151.198;2024-03-23T05:33:26;16.85;;;8.98;;
25990;SDS011;13779;-33.886;151.198;2024-03-23T05:35:58;11.32;;;3.33;;
25990;SDS011;13779;-33.886;151.198;2024-03-23T05:38:28;13.68;;;4.28;;
25990;SDS011;13779;-33.886;151.198;2024-03-23T05:40:58;17.92;;;5.57;;
25990;SDS011;13779;-33.886;151.198;2024-03-23T05:43:28;13.25;;;3.35;;
25990;SDS011;13779;-33.886;151.198;2024-03-23T05:45:59;10.52;;;4.18;;
25990;SDS011;13779;-33.886;151.198;2024-03-23T05:48:31;16.38;;;3.63;;
25990;SDS011;13779;-33.886;151.198;2024-03-23T05:51:00;13.25;;;3.00;;
25990;SDS011;13779;-33.886;151.198;2024-03-23T05:53:29;13.93;;;3.10;;
25990;SDS011;13779;-33.886;151.198;2024-03-23T05:56:02;18.13;;;4.75;;
25990;SDS011;13779;-33.886;151.198;2024-03-23T05:58:32;10.45;;;2.47;;
25990;SDS011;13779;-33.886;151.198;2024-03-23T06:01:03;9.55;;;3.00;;
25990;SDS011;13779;-33.886;151.198;2024-03-23T06:03:32;15.50;;;2.83;;
25990;SDS011;13779;-33.886;151.198;2024-03-23T06:06:01;7.68;;;2.20;;
25990;SDS011;13779;-33.886;151.198;2024-03-23T06:08:31;6.75;;;1.77;;
25990;SDS011;13779;-33.886;151.198;2024-03-23T06:10:59;12.63;;;3.00;;
25990;SDS011;13779;-33.886;151.198;2024-03-23T06:13:28;16.35;;;3.30;;
25990;SDS011;13779;-33.886;151.198;2024-03-23T06:15:57;9.88;;;2.92;;
25990;SDS011;13779;-33.886;151.198;2024-03-23T06:18:27;10.25;;;2.75;;
25990;SDS011;13779;-33.886;151.198;2024-03-23T06:20:55;13.88;;;4.10;;
25990;SDS011;13779;-33.886;151.198;2024-03-23T06:23:24;11.70;;;3.47;;
25990;SDS011;13779;-33.886;151.198;2024-03-23T06:25:53;13.30;;;3.45;;
25990;SDS011;13779;-33.886;151.198;2024-03-23T06:28:21;10.95;;;2.63;;
25990;SDS011;13779;-33.886;151.198;2024-03-23T06:30:50;21.02;;;5.60;;
25990;SDS011;13779;-33.886;151.198;2024-03-23T06:33:18;8.65;;;2.58;;
25990;SDS011;13779;-33.886;151.198;2024-03-23T06:35:53;10.38;;;3.13;;
25990;SDS011;13779;-33.886;151.198;2024-03-23T06:38:22;7.53;;;2.42;;
25990;SDS011;13779;-33.886;151.198;2024-03-23T06:40:51;15.27;;;4.80;;
25990;SDS011;13779;-33.886;151.198;2024-03-23T06:43:19;13.70;;;6.68;;
25990;SDS011;13779;-33.886;151.198;2024-03-23T06:45:54;13.63;;;3.63;;
25990;SDS011;13779;-33.886;151.198;2024-03-23T06:48:23;8.50;;;3.05;;
25990;SDS011;13779;-33.886;151.198;2024-03-23T06:50:58;11.85;;;2.60;;
25990;SDS011;13779;-33.886;151.198;2024-03-23T06:53:26;14.38;;;4.13;;
25990;SDS011;13779;-33.886;151.198;2024-03-23T06:55:55;7.22;;;2.30;;
25990;SDS011;13779;-33.886;151.198;2024-03-23T06:58:24;9.05;;;2.53;;
25990;SDS011;13779;-33.886;151.198;2024-03-23T07:00:53;7.70;;;2.22;;
25990;SDS011;13779;-33.886;151.198;2024-03-23T07:03:22;11.25;;;3.38;;
25990;SDS011;13779;-33.886;151.198;2024-03-23T07:05:52;9.33;;;3.00;;
25990;SDS011;13779;-33.886;151.198;2024-03-23T07:08:25;12.48;;;3.85;;
25990;SDS011;13779;-33.886;151.198;2024-03-23T07:10:53;10.88;;;3.40;;
25990;SDS011;13779;-33.886;151.198;2024-03-23T07:13:22;9.40;;;2.83;;
25990;SDS011;13779;-33.886;151.198;2024-03-23T07:15:53;9.90;;;2.28;;
25990;SDS011;13779;-33.886;151.198;2024-03-23T07:18:23;10.07;;;3.10;;
25990;SDS011;13779;-33.886;151.198;2024-03-23T07:20:53;11.77;;;3.78;;
25990;SDS011;13779;-33.886;151.198;2024-03-23T07:23:25;9.48;;;2.60;;
25990;SDS011;13779;-33.886;151.198;2024-03-23T07:25:57;10.35;;;3.60;;
25990;SDS011;13779;-33.886;151.198;2024-03-23T07:28:29;8.18;;;3.30;;
25990;SDS011;13779;-33.886;151.198;2024-03-23T07:31:01;12.70;;;3.60;;
25990;SDS011;13779;-33.886;151.198;2024-03-23T07:33:30;11.75;;;3.97;;
25990;SDS011;13779;-33.886;151.198;2024-03-23T07:35:59;13.07;;;4.25;;
25990;SDS011;13779;-33.886;151.198;2024-03-23T07:38:32;11.07;;;3.50;;
25990;SDS011;13779;-33.886;151.198;2024-03-23T07:41:07;13.20;;;3.10;;
25990;SDS011;13779;-33.886;151.198;2024-03-23T07:43:38;14.95;;;4.95;;
25990;SDS011;13779;-33.886;151.198;2024-03-23T07:46:10;14.93;;;3.92;;
25990;SDS011;13779;-33.886;151.198;2024-03-23T07:48:41;13.90;;;5.47;;
25990;SDS011;13779;-33.886;151.198;2024-03-23T07:51:18;6.10;;;2.72;;
25990;SDS011;13779;-33.886;151.198;2024-03-23T07:53:50;8.15;;;3.35;;
25990;SDS011;13779;-33.886;151.198;2024-03-23T07:56:21;14.73;;;4.40;;
25990;SDS011;13779;-33.886;151.198;2024-03-23T07:58:50;10.20;;;3.10;;
25990;SDS011;13779;-33.886;151.198;2024-03-23T08:01:19;11.77;;;3.33;;
25990;SDS011;13779;-33.886;151.198;2024-03-23T08:03:47;13.98;;;4.05;;
25990;SDS011;13779;-33.886;151.198;2024-03-23T08:06:18;12.00;;;3.85;;
25990;SDS011;13779;-33.886;151.198;2024-03-23T08:08:52;9.68;;;3.67;;
25990;SDS011;13779;-33.886;151.198;2024-03-23T08:11:28;8.95;;;2.60;;
25990;SDS011;13779;-33.886;151.198;2024-03-23T08:13:58;13.48;;;3.30;;
25990;SDS011;13779;-33.886;151.198;2024-03-23T08:16:29;16.27;;;5.20;;
25990;SDS011;13779;-33.886;151.198;2024-03-23T08:18:58;11.33;;;3.30;;
25990;SDS011;13779;-33.886;151.198;2024-03-23T08:21:26;13.55;;;4.60;;
25990;SDS011;13779;-33.886;151.198;2024-03-23T08:23:55;11.07;;;4.13;;
25990;SDS011;13779;-33.886;151.198;2024-03-23T08:26:24;11.75;;;4.05;;
25990;SDS011;13779;-33.886;151.198;2024-03-23T08:28:52;12.60;;;3.55;;
25990;SDS011;13779;-33.886;151.198;2024-03-23T08:31:21;22.95;;;8.27;;
25990;SDS011;13779;-33.886;151.198;2024-03-23T08:33:49;9.77;;;3.90;;
25990;SDS011;13779;-33.886;151.198;2024-03-23T08:36:18;17.25;;;6.45;;
25990;SDS011;13779;-33.886;151.198;2024-03-23T08:38:47;23.25;;;8.80;;
25990;SDS011;13779;-33.886;151.198;2024-03-23T08:41:17;10.57;;;3.63;;
25990;SDS011;13779;-33.886;151.198;2024-03-23T08:43:45;13.27;;;4.97;;
25990;SDS011;13779;-33.886;151.198;2024-03-23T08:46:15;7.40;;;3.83;;
25990;SDS011;13779;-33.886;151.198;2024-03-23T08:48:44;13.00;;;5.00;;
25990;SDS011;13779;-33.886;151.198;2024-03-23T08:51:16;13.70;;;4.05;;
25990;SDS011;13779;-33.886;151.198;2024-03-23T08:53:45;16.20;;;5.10;;
25990;SDS011;13779;-33.886;151.198;2024-03-23T08:56:13;11.45;;;4.57;;
25990;SDS011;13779;-33.886;151.198;2024-03-23T08:58:42;19.42;;;5.22;;
25990;SDS011;13779;-33.886;151.198;2024-03-23T09:01:12;11.10;;;5.03;;
25990;SDS011;13779;-33.886;151.198;2024-03-23T09:03:41;17.73;;;6.30;;
25990;SDS011;13779;-33.886;151.198;2024-03-23T09:06:13;11.73;;;4.70;;
25990;SDS011;13779;-33.886;151.198;2024-03-23T09:08:42;16.48;;;7.18;;
25990;SDS011;13779;-33.886;151.198;2024-03-23T09:11:11;14.65;;;4.63;;
25990;SDS011;13779;-33.886;151.198;2024-03-23T09:13:40;11.48;;;4.28;;
25990;SDS011;13779;-33.886;151.198;2024-03-23T09:16:09;13.18;;;5.55;;
25990;SDS011;13779;-33.886;151.198;2024-03-23T09:18:39;14.53;;;4.07;;
25990;SDS011;13779;-33.886;151.198;2024-03-23T09:21:12;18.95;;;6.95;;
25990;SDS011;13779;-33.886;151.198;2024-03-23T09:23:44;10.25;;;4.70;;
25990;SDS011;13779;-33.886;151.198;2024-03-23T09:26:13;14.80;;;6.32;;
25990;SDS011;13779;-33.886;151.198;2024-03-23T09:28:42;13.88;;;5.40;;
25990;SDS011;13779;-33.886;151.198;2024-03-23T09:31:11;15.18;;;6.22;;
25990;SDS011;13779;-33.886;151.198;2024-03-23T09:33:41;19.67;;;7.68;;
25990;SDS011;13779;-33.886;151.198;2024-03-23T09:36:10;11.02;;;3.40;;
25990;SDS011;13779;-33.886;151.198;2024-03-23T09:38:39;20.05;;;5.82;;
25990;SDS011;13779;-33.886;151.198;2024-03-23T09:41:09;13.25;;;4.97;;
25990;SDS011;13779;-33.886;151.198;2024-03-23T09:43:39;15.30;;;6.05;;
25990;SDS011;13779;-33.886;151.198;2024-03-23T09:46:08;14.60;;;5.80;;
25990;SDS011;13779;-33.886;151.198;2024-03-23T09:48:36;21.00;;;6.78;;
25990;SDS011;13779;-33.886;151.198;2024-03-23T09:51:05;18.35;;;7.50;;
25990;SDS011;13779;-33.886;151.198;2024-03-23T09:53:36;13.45;;;4.93;;
25990;SDS011;13779;-33.886;151.198;2024-03-23T09:56:05;28.63;;;10.83;;
25990;SDS011;13779;-33.886;151.198;2024-03-23T09:58:36;13.70;;;4.50;;
25990;SDS011;13779;-33.886;151.198;2024-03-23T10:01:04;12.77;;;3.80;;
25990;SDS011;13779;-33.886;151.198;2024-03-23T10:03:44;14.57;;;4.20;;
25990;SDS011;13779;-33.886;151.198;2024-03-23T10:06:13;16.60;;;5.63;;
25990;SDS011;13779;-33.886;151.198;2024-03-23T10:08:48;30.95;;;11.95;;
25990;SDS011;13779;-33.886;151.198;2024-03-23T10:11:17;12.90;;;5.25;;
25990;SDS011;13779;-33.886;151.198;2024-03-23T10:13:47;15.93;;;4.10;;
25990;SDS011;13779;-33.886;151.198;2024-03-23T10:16:20;26.15;;;8.05;;
25990;SDS011;13779;-33.886;151.198;2024-03-23T10:18:50;15.25;;;5.63;;
25990;SDS011;13779;-33.886;151.198;2024-03-23T10:21:19;11.50;;;4.95;;
25990;SDS011;13779;-33.886;151.198;2024-03-23T10:23:47;19.30;;;5.70;;
25990;SDS011;13779;-33.886;151.198;2024-03-23T10:26:21;17.60;;;6.18;;
25990;SDS011;13779;-33.886;151.198;2024-03-23T10:28:58;18.50;;;6.43;;
25990;SDS011;13779;-33.886;151.198;2024-03-23T10:31:28;18.40;;;5.78;;
25990;SDS011;13779;-33.886;151.198;2024-03-23T10:33:58;27.02;;;9.23;;
25990;SDS011;13779;-33.886;151.198;2024-03-23T10:36:27;22.27;;;7.38;;
25990;SDS011;13779;-33.886;151.198;2024-03-23T10:38:56;10.90;;;2.83;;
25990;SDS011;13779;-33.886;151.198;2024-03-23T10:41:27;22.67;;;7.32;;
25990;SDS011;13779;-33.886;151.198;2024-03-23T10:43:58;11.27;;;3.85;;
25990;SDS011;13779;-33.886;151.198;2024-03-23T10:46:28;14.32;;;5.05;;
25990;SDS011;13779;-33.886;151.198;2024-03-23T10:48:58;6.90;;;2.42;;
25990;SDS011;13779;-33.886;151.198;2024-03-23T10:51:26;10.75;;;3.20;;
25990;SDS011;13779;-33.886;151.198;2024-03-23T10:53:55;9.43;;;3.72;;
25990;SDS011;13779;-33.886;151.198;2024-03-23T10:56:24;10.45;;;3.10;;
25990;SDS011;13779;-33.886;151.198;2024-03-23T10:59:00;11.05;;;4.07;;
25990;SDS011;13779;-33.886;151.198;2024-03-23T11:01:30;13.00;;;5.22;;
25990;SDS011;13779;-33.886;151.198;2024-03-23T11:03:58;19.20;;;5.05;;
25990;SDS011;13779;-33.886;151.198;2024-03-23T11:06:34;16.02;;;4.88;;
25990;SDS011;13779;-33.886;151.198;2024-03-23T11:09:04;9.65;;;3.10;;
25990;SDS011;13779;-33.886;151.198;2024-03-23T11:11:52;11.85;;;4.28;;
25990;SDS011;13779;-33.886;151.198;2024-03-23T11:14:23;11.73;;;3.80;;
25990;SDS011;13779;-33.886;151.198;2024-03-23T11:17:10;11.25;;;4.20;;
25990;SDS011;13779;-33.886;151.198;2024-03-23T11:19:52;16.63;;;4.68;;
25990;SDS011;13779;-33.886;151.198;2024-03-23T11:25:20;12.82;;;3.92;;
25990;SDS011;13779;-33.886;151.198;2024-03-23T11:30:39;14.18;;;4.70;;
25990;SDS011;13779;-33.886;151.198;2024-03-23T11:33:09;12.57;;;4.70;;
25990;SDS011;13779;-33.886;151.198;2024-03-23T11:35:38;15.65;;;4.68;;
25990;SDS011;13779;-33.886;151.198;2024-03-23T11:38:11;9.63;;;3.63;;
25990;SDS011;13779;-33.886;151.198;2024-03-23T11:40:47;11.75;;;4.55;;
25990;SDS011;13779;-33.886;151.198;2024-03-23T11:43:17;8.48;;;3.72;;
25990;SDS011;13779;-33.886;151.198;2024-03-23T11:45:51;10.35;;;3.60;;
25990;SDS011;13779;-33.886;151.198;2024-03-23T11:48:22;9.80;;;3.75;;
25990;SDS011;13779;-33.886;151.198;2024-03-23T11:50:55;12.98;;;4.03;;
25990;SDS011;13779;-33.886;151.198;2024-03-23T11:53:24;10.02;;;4.35;;
25990;SDS011;13779;-33.886;151.198;2024-03-23T11:55:57;11.38;;;3.95;;
25990;SDS011;13779;-33.886;151.198;2024-03-23T11:58:29;9.18;;;4.32;;
25990;SDS011;13779;-33.886;151.198;2024-03-23T12:01:02;9.68;;;4.32;;
25990;SDS011;13779;-33.886;151.198;2024-03-23T12:03:31;9.15;;;2.83;;
25990;SDS011;13779;-33.886;151.198;2024-03-23T12:06:02;9.52;;;3.65;;
25990;SDS011;13779;-33.886;151.198;2024-03-23T12:08:32;13.00;;;5.15;;
25990;SDS011;13779;-33.886;151.198;2024-03-23T12:11:07;11.10;;;5.28;;
25990;SDS011;13779;-33.886;151.198;2024-03-23T12:13:42;11.85;;;4.80;;
25990;SDS011;13779;-33.886;151.198;2024-03-23T12:16:13;6.63;;;3.15;;
25990;SDS011;13779;-33.886;151.198;2024-03-23T12:18:44;11.40;;;5.38;;
25990;SDS011;13779;-33.886;151.198;2024-03-23T12:21:14;8.05;;;3.97;;
25990;SDS011;13779;-33.886;151.198;2024-03-23T12:23:43;10.73;;;3.55;;
25990;SDS011;13779;-33.886;151.198;2024-03-23T12:26:13;12.55;;;5.30;;
25990;SDS011;13779;-33.886;151.198;2024-03-23T12:28:42;9.65;;;4.88;;
25990;SDS011;13779;-33.886;151.198;2024-03-23T12:31:10;11.85;;;4.63;;
25990;SDS011;13779;-33.886;151.198;2024-03-23T12:33:38;8.65;;;3.58;;
25990;SDS011;13779;-33.886;151.198;2024-03-23T12:36:06;8.05;;;3.60;;
25990;SDS011;13779;-33.886;151.198;2024-03-23T12:38:35;6.75;;;3.47;;
25990;SDS011;13779;-33.886;151.198;2024-03-23T12:41:03;8.88;;;4.35;;
25990;SDS011;13779;-33.886;151.198;2024-03-23T12:43:31;10.95;;;4.45;;
25990;SDS011;13779;-33.886;151.198;2024-03-23T12:46:00;7.78;;;3.40;;
25990;SDS011;13779;-33.886;151.198;2024-03-23T12:48:28;7.70;;;3.67;;
25990;SDS011;13779;-33.886;151.198;2024-03-23T12:50:57;7.18;;;3.38;;
25990;SDS011;13779;-33.886;151.198;2024-03-23T12:53:25;8.52;;;2.90;;
25990;SDS011;13779;-33.886;151.198;2024-03-23T12:55:53;10.80;;;3.75;;
25990;SDS011;13779;-33.886;151.198;2024-03-23T12:58:23;8.00;;;3.80;;
25990;SDS011;13779;-33.886;151.198;2024-03-23T13:00:51;10.68;;;4.35;;
25990;SDS011;13779;-33.886;151.198;2024-03-23T13:03:19;9.75;;;3.50;;
25990;SDS011;13779;-33.886;151.198;2024-03-23T13:05:54;7.75;;;3.30;;
25990;SDS011;13779;-33.886;151.198;2024-03-23T13:08:22;9.55;;;4.18;;
25990;SDS011;13779;-33.886;151.198;2024-03-23T13:10:53;5.90;;;3.22;;
25990;SDS011;13779;-33.886;151.198;2024-03-23T13:13:21;9.82;;;4.18;;
25990;SDS011;13779;-33.886;151.198;2024-03-23T13:15:50;7.97;;;3.15;;
25990;SDS011;13779;-33.886;151.198;2024-03-23T13:18:18;7.18;;;3.38;;
25990;SDS011;13779;-33.886;151.198;2024-03-23T13:20:46;7.70;;;3.20;;
25990;SDS011;13779;-33.886;151.198;2024-03-23T13:23:14;7.65;;;2.70;;
25990;SDS011;13779;-33.886;151.198;2024-03-23T13:25:50;6.78;;;3.08;;
25990;SDS011;13779;-33.886;151.198;2024-03-23T13:28:22;5.70;;;3.10;;
25990;SDS011;13779;-33.886;151.198;2024-03-23T13:30:51;10.70;;;3.67;;
25990;SDS011;13779;-33.886;151.198;2024-03-23T13:33:24;9.10;;;3.08;;
25990;SDS011;13779;-33.886;151.198;2024-03-23T13:35:52;8.82;;;4.47;;
25990;SDS011;13779;-33.886;151.198;2024-03-23T13:38:24;5.95;;;3.05;;
25990;SDS011;13779;-33.886;151.198;2024-03-23T13:40:53;7.82;;;2.95;;
25990;SDS011;13779;-33.886;151.198;2024-03-23T13:43:26;10.82;;;4.18;;
25990;SDS011;13779;-33.886;151.198;2024-03-23T13:45:56;7.20;;;3.13;;
25990;SDS011;13779;-33.886;151.198;2024-03-23T13:48:28;7.53;;;3.92;;
25990;SDS011;13779;-33.886;151.198;2024-03-23T13:53:25;6.85;;;3.85;;
25990;SDS011;13779;-33.886;151.198;2024-03-23T13:55:53;6.80;;;3.63;;
25990;SDS011;13779;-33.886;151.198;2024-03-23T13:58:21;7.10;;;3.20;;
25990;SDS011;13779;-33.886;151.198;2024-03-23T14:00:52;9.27;;;3.75;;
25990;SDS011;13779;-33.886;151.198;2024-03-23T14:03:23;13.82;;;4.35;;
25990;SDS011;13779;-33.886;151.198;2024-03-23T14:05:52;6.32;;;3.22;;
25990;SDS011;13779;-33.886;151.198;2024-03-23T14:08:20;10.70;;;4.93;;
25990;SDS011;13779;-33.886;151.198;2024-03-23T14:10:48;8.70;;;4.28;;
25990;SDS011;13779;-33.886;151.198;2024-03-23T14:13:18;9.13;;;4.25;;
25990;SDS011;13779;-33.886;151.198;2024-03-23T14:15:46;9.40;;;3.05;;
25990;SDS011;13779;-33.886;151.198;2024-03-23T14:18:20;5.45;;;2.95;;
25990;SDS011;13779;-33.886;151.198;2024-03-23T14:20:52;9.27;;;3.05;;
25990;SDS011;13779;-33.886;151.198;2024-03-23T14:23:25;9.30;;;3.28;;
25990;SDS011;13779;-33.886;151.198;2024-03-23T14:26:01;8.00;;;3.53;;
25990;SDS011;13779;-33.886;151.198;2024-03-23T14:28:30;8.07;;;3.70;;
25990;SDS011;13779;-33.886;151.198;2024-03-23T14:30:58;9.40;;;3.97;;
25990;SDS011;13779;-33.886;151.198;2024-03-23T14:33:27;9.40;;;3.60;;
25990;SDS011;13779;-33.886;151.198;2024-03-23T14:35:56;12.82;;;3.92;;
25990;SDS011;13779;-33.886;151.198;2024-03-23T14:38:25;6.57;;;3.70;;
25990;SDS011;13779;-33.886;151.198;2024-03-23T14:40:54;7.93;;;3.50;;
25990;SDS011;13779;-33.886;151.198;2024-03-23T14:43:26;7.28;;;3.70;;
25990;SDS011;13779;-33.886;151.198;2024-03-23T14:48:36;8.07;;;4.10;;
25990;SDS011;13779;-33.886;151.198;2024-03-23T14:51:05;7.45;;;4.35;;
25990;SDS011;13779;-33.886;151.198;2024-03-23T14:53:35;6.50;;;3.67;;
25990;SDS011;13779;-33.886;151.198;2024-03-23T14:56:09;7.47;;;3.63;;
25990;SDS011;13779;-33.886;151.198;2024-03-23T14:58:40;8.85;;;3.78;;
25990;SDS011;13779;-33.886;151.198;2024-03-23T15:01:08;7.55;;;3.67;;
25990;SDS011;13779;-33.886;151.198;2024-03-23T15:03:37;11.20;;;4.28;;
25990;SDS011;13779;-33.886;151.198;2024-03-23T15:06:06;9.32;;;4.00;;
25990;SDS011;13779;-33.886;151.198;2024-03-23T15:08:38;10.55;;;5.07;;
25990;SDS011;13779;-33.886;151.198;2024-03-23T15:13:37;11.60;;;4.05;;
25990;SDS011;13779;-33.886;151.198;2024-03-23T15:16:06;6.43;;;4.15;;
25990;SDS011;13779;-33.886;151.198;2024-03-23T15:18:34;6.57;;;4.45;;
25990;SDS011;13779;-33.886;151.198;2024-03-23T15:21:03;9.40;;;4.32;;